sensor_id;sensor_type;location;lat;lon;timestamp;pressure;altitude;pressure_sealevel;temperature;humidity
36380;BME280;22411;53.016;18.632;2023-08-31T00:02:11;99693.72;;;14.07;100.00
36380;BME280;22411;53.016;18.632;2023-08-31T00:04:37;99692.50;;;14.01;100.00
36380;BME280;22411;53.016;18.632;2023-08-31T00:07:03;99699.94;;;13.96;100.00
36380;BME280;22411;53.016;18.632;2023-08-31T00:09:29;99690.50;;;13.95;100.00
36380;BME280;22411;53.016;18.632;2023-08-31T00:11:54;99695.72;;;13.95;100.00
36380;BME280;22411;53.016;18.632;2023-08-31T00:14:23;99700.31;;;14.01;100.00
36380;BME280;22411;53.016;18.632;2023-08-31T00:16:49;99698.53;;;14.02;100.00
36380;BME280;22411;53.016;18.632;2023-08-31T00:19:16;99693.59;;;14.08;100.00
36380;BME280;22411;53.016;18.632;2023-08-31T00:21:42;99696.31;;;14.07;100.00
36380;BME280;22411;53.016;18.632;2023-08-31T00:24:08;99695.44;;;13.98;100.00
36380;BME280;22411;53.016;18.632;2023-08-31T00:26:36;99691.41;;;14.04;100.00
36380;BME280;22411;53.016;18.632;2023-08-31T00:29:05;99699.88;;;14.06;100.00
36380;BME280;22411;53.016;18.632;2023-08-31T00:31:31;99698.78;;;14.08;100.00
36380;BME280;22411;53.016;18.632;2023-08-31T00:33:57;99701.69;;;14.05;100.00
36380;BME280;22411;53.016;18.632;2023-08-31T00:36:22;99697.97;;;14.08;100.00
36380;BME280;22411;53.016;18.632;2023-08-31T00:38:48;99701.41;;;14.08;100.00
36380;BME280;22411;53.016;18.632;2023-08-31T00:41:14;99695.50;;;14.06;100.00
36380;BME280;22411;53.016;18.632;2023-08-31T00:43:40;99701.09;;;14.11;100.00
36380;BME280;22411;53.016;18.632;2023-08-31T00:46:06;99700.13;;;14.12;100.00
36380;BME280;22411;53.016;18.632;2023-08-31T00:48:32;99702.44;;;14.16;100.00
36380;BME280;22411;53.016;18.632;2023-08-31T00:50:58;99698.31;;;14.13;100.00
36380;BME280;22411;53.016;18.632;2023-08-31T00:53:24;99710.09;;;14.17;100.00
36380;BME280;22411;53.016;18.632;2023-08-31T00:55:50;99708.91;;;14.11;100.00
36380;BME280;22411;53.016;18.632;2023-08-31T00:58:16;99711.88;;;14.17;100.00
36380;BME280;22411;53.016;18.632;2023-08-31T01:01:03;99715.19;;;14.19;100.00
36380;BME280;22411;53.016;18.632;2023-08-31T01:03:41;99714.06;;;14.21;100.00
36380;BME280;22411;53.016;18.632;2023-08-31T01:06:18;99713.91;;;14.23;100.00
36380;BME280;22411;53.016;18.632;2023-08-31T01:08:59;99716.00;;;14.19;100.00
36380;BME280;22411;53.016;18.632;2023-08-31T01:11:37;99711.00;;;14.26;100.00
36380;BME280;22411;53.016;18.632;2023-08-31T01:14:14;99712.97;;;14.24;100.00
36380;BME280;22411;53.016;18.632;2023-08-31T01:16:43;99708.03;;;14.21;100.00
36380;BME280;22411;53.016;18.632;2023-08-31T01:19:22;99720.47;;;14.27;100.00
36380;BME280;22411;53.016;18.632;2023-08-31T01:21:51;99717.59;;;14.30;100.00
36380;BME280;22411;53.016;18.632;2023-08-31T01:24:21;99717.59;;;14.30;100.00
36380;BME280;22411;53.016;18.632;2023-08-31T01:26:51;99713.63;;;14.26;100.00
36380;BME280;22411;53.016;18.632;2023-08-31T01:29:18;99722.25;;;14.26;100.00
36380;BME280;22411;53.016;18.632;2023-08-31T01:31:44;99718.53;;;14.29;100.00
36380;BME280;22411;53.016;18.632;2023-08-31T01:34:11;99718.19;;;14.24;100.00
36380;BME280;22411;53.016;18.632;2023-08-31T01:36:42;99724.88;;;14.26;100.00
36380;BME280;22411;53.016;18.632;2023-08-31T01:39:14;99713.78;;;14.24;100.00
36380;BME280;22411;53.016;18.632;2023-08-31T01:41:43;99721.66;;;14.32;100.00
36380;BME280;22411;53.016;18.632;2023-08-31T01:44:15;99718.25;;;14.32;100.00
36380;BME280;22411;53.016;18.632;2023-08-31T01:46:45;99713.31;;;14.29;100.00
36380;BME280;22411;53.016;18.632;2023-08-31T01:49:11;99716.22;;;14.26;100.00
36380;BME280;22411;53.016;18.632;2023-08-31T01:51:36;99714.00;;;14.31;100.00
36380;BME280;22411;53.016;18.632;2023-08-31T01:54:02;99714.44;;;14.26;100.00
36380;BME280;22411;53.016;18.632;2023-08-31T01:56:28;99707.81;;;14.32;100.00
36380;BME280;22411;53.016;18.632;2023-08-31T01:58:54;99714.28;;;14.28;100.00
36380;BME280;22411;53.016;18.632;2023-08-31T02:01:20;99713.47;;;14.27;100.00
36380;BME280;22411;53.016;18.632;2023-08-31T02:03:45;99708.09;;;14.29;100.00
36380;BME280;22411;53.016;18.632;2023-08-31T02:06:11;99705.50;;;14.29;100.00
36380;BME280;22411;53.016;18.632;2023-08-31T02:08:37;99711.69;;;14.28;100.00
36380;BME280;22411;53.016;18.632;2023-08-31T02:11:02;99716.59;;;14.31;100.00
36380;BME280;22411;53.016;18.632;2023-08-31T02:13:30;99706.34;;;14.29;100.00
36380;BME280;22411;53.016;18.632;2023-08-31T02:15:55;99704.00;;;14.26;100.00
36380;BME280;22411;53.016;18.632;2023-08-31T02:18:21;99707.44;;;14.27;100.00
36380;BME280;22411;53.016;18.632;2023-08-31T02:20:47;99712.88;;;14.33;100.00
36380;BME280;22411;53.016;18.632;2023-08-31T02:23:13;99714.81;;;14.31;100.00
36380;BME280;22411;53.016;18.632;2023-08-31T02:25:38;99713.03;;;14.32;100.00
36380;BME280;22411;53.016;18.632;2023-08-31T02:28:04;99717.41;;;14.31;100.00
36380;BME280;22411;53.016;18.632;2023-08-31T02:30:30;99715.78;;;14.30;100.00
36380;BME280;22411;53.016;18.632;2023-08-31T02:32:56;99714.16;;;14.29;100.00
36380;BME280;22411;53.016;18.632;2023-08-31T02:35:22;99719.06;;;14.32;100.00
36380;BME280;22411;53.016;18.632;2023-08-31T02:37:48;99724.72;;;14.28;100.00
36380;BME280;22411;53.016;18.632;2023-08-31T02:40:13;99718.84;;;14.26;100.00
36380;BME280;22411;53.016;18.632;2023-08-31T02:42:41;99717.19;;;14.25;100.00
36380;BME280;22411;53.016;18.632;2023-08-31T02:45:07;99715.41;;;14.25;100.00
36380;BME280;22411;53.016;18.632;2023-08-31T02:47:33;99712.28;;;14.22;100.00
36380;BME280;22411;53.016;18.632;2023-08-31T02:49:58;99715.31;;;14.17;100.00
36380;BME280;22411;53.016;18.632;2023-08-31T02:52:25;99716.66;;;14.21;100.00
36380;BME280;22411;53.016;18.632;2023-08-31T02:54:51;99714.22;;;14.20;100.00
36380;BME280;22411;53.016;18.632;2023-08-31T02:57:17;99715.03;;;14.20;100.00
36380;BME280;22411;53.016;18.632;2023-08-31T02:59:45;99715.56;;;14.24;100.00
36380;BME280;22411;53.016;18.632;2023-08-31T03:02:12;99711.31;;;14.23;100.00
36380;BME280;22411;53.016;18.632;2023-08-31T03:04:37;99714.72;;;14.23;100.00
36380;BME280;22411;53.016;18.632;2023-08-31T03:07:03;99707.22;;;14.20;100.00
36380;BME280;22411;53.016;18.632;2023-08-31T03:09:29;99717.78;;;14.19;100.00
36380;BME280;22411;53.016;18.632;2023-08-31T03:11:55;99715.19;;;14.19;100.00
36380;BME280;22411;53.016;18.632;2023-08-31T03:14:21;99713.03;;;14.14;100.00
36380;BME280;22411;53.016;18.632;2023-08-31T03:16:47;99720.03;;;14.13;100.00
36380;BME280;22411;53.016;18.632;2023-08-31T03:19:14;99715.91;;;14.11;100.00
36380;BME280;22411;53.016;18.632;2023-08-31T03:21:40;99724.38;;;14.13;100.00
36380;BME280;22411;53.016;18.632;2023-08-31T03:24:06;99732.06;;;14.15;100.00
36380;BME280;22411;53.016;18.632;2023-08-31T03:26:31;99732.19;;;14.13;100.00
36380;BME280;22411;53.016;18.632;2023-08-31T03:28:57;99735.13;;;14.10;100.00
36380;BME280;22411;53.016;18.632;2023-08-31T03:31:23;99729.25;;;14.08;100.00
36380;BME280;22411;53.016;18.632;2023-08-31T03:33:50;99742.41;;;14.06;100.00
36380;BME280;22411;53.016;18.632;2023-08-31T03:36:16;99737.88;;;14.08;100.00
36380;BME280;22411;53.016;18.632;2023-08-31T03:38:41;99743.09;;;14.08;100.00
36380;BME280;22411;53.016;18.632;2023-08-31T03:41:07;99749.56;;;14.04;100.00
36380;BME280;22411;53.016;18.632;2023-08-31T03:43:33;99749.25;;;14.07;100.00
36380;BME280;22411;53.016;18.632;2023-08-31T03:45:59;99752.44;;;14.01;100.00
36380;BME280;22411;53.016;18.632;2023-08-31T03:48:25;99748.56;;;14.05;100.00
36380;BME280;22411;53.016;18.632;2023-08-31T03:50:52;99753.69;;;13.97;100.00
36380;BME280;22411;53.016;18.632;2023-08-31T03:53:18;99748.19;;;14.00;100.00
36380;BME280;22411;53.016;18.632;2023-08-31T03:55:44;99749.00;;;14.01;100.00
36380;BME280;22411;53.016;18.632;2023-08-31T03:58:10;99751.91;;;13.98;100.00
36380;BME280;22411;53.016;18.632;2023-08-31T04:00:36;99755.03;;;14.01;100.00
36380;BME280;22411;53.016;18.632;2023-08-31T04:03:02;99761.59;;;14.05;100.00
36380;BME280;22411;53.016;18.632;2023-08-31T04:05:33;99764.78;;;13.99;100.00
36380;BME280;22411;53.016;18.632;2023-08-31T04:07:59;99764.94;;;13.98;100.00
36380;BME280;22411;53.016;18.632;2023-08-31T04:10:26;99769.03;;;14.00;100.00
36380;BME280;22411;53.016;18.632;2023-08-31T04:12:52;99764.78;;;13.99;100.00
36380;BME280;22411;53.016;18.632;2023-08-31T04:15:18;99759.59;;;13.99;100.00
36380;BME280;22411;53.016;18.632;2023-08-31T04:17:43;99759.44;;;14.01;100.00
36380;BME280;22411;53.016;18.632;2023-08-31T04:20:11;99758.63;;;14.00;100.00
36380;BME280;22411;53.016;18.632;2023-08-31T04:22:36;99753.00;;;13.95;100.00
36380;BME280;22411;53.016;18.632;2023-08-31T04:25:02;99753.00;;;13.95;100.00
36380;BME280;22411;53.016;18.632;2023-08-31T04:27:28;99748.78;;;13.94;100.00
36380;BME280;22411;53.016;18.632;2023-08-31T04:30:00;99751.06;;;13.97;100.00
36380;BME280;22411;53.016;18.632;2023-08-31T04:32:26;99744.09;;;13.98;100.00
36380;BME280;22411;53.016;18.632;2023-08-31T04:34:52;99743.94;;;13.99;100.00
36380;BME280;22411;53.016;18.632;2023-08-31T04:37:18;99746.25;;;14.02;100.00
36380;BME280;22411;53.016;18.632;2023-08-31T04:39:44;99744.19;;;14.06;100.00
36380;BME280;22411;53.016;18.632;2023-08-31T04:42:09;99740.59;;;14.07;100.00
36380;BME280;22411;53.016;18.632;2023-08-31T04:44:35;99747.31;;;14.09;100.00
36380;BME280;22411;53.016;18.632;2023-08-31T04:47:01;99753.03;;;14.13;100.00
36380;BME280;22411;53.016;18.632;2023-08-31T04:49:27;99756.19;;;14.17;100.00
36380;BME280;22411;53.016;18.632;2023-08-31T04:51:52;99755.59;;;14.23;100.00
36380;BME280;22411;53.016;18.632;2023-08-31T04:54:18;99749.81;;;14.29;100.00
36380;BME280;22411;53.016;18.632;2023-08-31T04:56:44;99757.94;;;14.26;100.00
36380;BME280;22411;53.016;18.632;2023-08-31T04:59:10;99757.06;;;14.35;100.00
36380;BME280;22411;53.016;18.632;2023-08-31T05:01:35;99767.16;;;14.38;100.00
36380;BME280;22411;53.016;18.632;2023-08-31T05:04:02;99774.41;;;14.44;100.00
36380;BME280;22411;53.016;18.632;2023-08-31T05:06:28;99776.06;;;14.45;100.00
36380;BME280;22411;53.016;18.632;2023-08-31T05:08:54;99785.25;;;14.49;100.00
36380;BME280;22411;53.016;18.632;2023-08-31T05:11:19;99781.22;;;14.55;100.00
36380;BME280;22411;53.016;18.632;2023-08-31T05:13:47;99780.28;;;14.56;100.00
36380;BME280;22411;53.016;18.632;2023-08-31T05:16:12;99786.69;;;14.61;100.00
36380;BME280;22411;53.016;18.632;2023-08-31T05:18:38;99781.53;;;14.70;100.00
36380;BME280;22411;53.016;18.632;2023-08-31T05:21:05;99778.47;;;14.74;100.00
36380;BME280;22411;53.016;18.632;2023-08-31T05:23:31;99783.03;;;14.72;100.00
36380;BME280;22411;53.016;18.632;2023-08-31T05:25:57;99787.81;;;14.77;100.00
36380;BME280;22411;53.016;18.632;2023-08-31T05:28:23;99787.81;;;14.77;100.00
36380;BME280;22411;53.016;18.632;2023-08-31T05:30:50;99776.84;;;14.73;100.00
36380;BME280;22411;53.016;18.632;2023-08-31T05:33:17;99788.75;;;14.76;100.00
36380;BME280;22411;53.016;18.632;2023-08-31T05:35:43;99785.34;;;14.75;100.00
36380;BME280;22411;53.016;18.632;2023-08-31T05:38:09;99786.16;;;14.76;100.00
36380;BME280;22411;53.016;18.632;2023-08-31T05:40:35;99790.25;;;14.78;100.00
36380;BME280;22411;53.016;18.632;2023-08-31T05:43:01;99787.22;;;14.83;100.00
36380;BME280;22411;53.016;18.632;2023-08-31T05:45:31;99791.28;;;14.85;100.00
36380;BME280;22411;53.016;18.632;2023-08-31T05:47:57;99793.47;;;14.90;100.00
36380;BME280;22411;53.016;18.632;2023-08-31T05:50:23;99792.94;;;14.86;100.00
36380;BME280;22411;53.016;18.632;2023-08-31T05:52:49;99807.16;;;14.92;100.00
36380;BME280;22411;53.016;18.632;2023-08-31T05:55:14;99803.47;;;14.95;100.00
36380;BME280;22411;53.016;18.632;2023-08-31T05:57:40;99804.44;;;14.94;100.00
36380;BME280;22411;53.016;18.632;2023-08-31T06:00:06;99811.13;;;14.96;100.00
36380;BME280;22411;53.016;18.632;2023-08-31T06:02:35;99816.22;;;14.98;100.00
36380;BME280;22411;53.016;18.632;2023-08-31T06:05:01;99817.16;;;14.97;100.00
36380;BME280;22411;53.016;18.632;2023-08-31T06:07:27;99808.06;;;15.01;100.00
36380;BME280;22411;53.016;18.632;2023-08-31T06:09:55;99807.63;;;15.05;100.00
36380;BME280;22411;53.016;18.632;2023-08-31T06:12:21;99799.88;;;15.13;100.00
36380;BME280;22411;53.016;18.632;2023-08-31T06:14:47;99798.66;;;15.26;100.00
36380;BME280;22411;53.016;18.632;2023-08-31T06:17:13;99799.84;;;15.31;100.00
36380;BME280;22411;53.016;18.632;2023-08-31T06:19:42;99791.09;;;15.40;100.00
36380;BME280;22411;53.016;18.632;2023-08-31T06:22:08;99799.78;;;15.49;100.00
36380;BME280;22411;53.016;18.632;2023-08-31T06:24:34;99804.75;;;15.60;100.00
36380;BME280;22411;53.016;18.632;2023-08-31T06:27:00;99800.13;;;15.72;100.00
36380;BME280;22411;53.016;18.632;2023-08-31T06:29:26;99812.13;;;15.83;100.00
36380;BME280;22411;53.016;18.632;2023-08-31T06:31:52;99810.16;;;15.85;100.00
36380;BME280;22411;53.016;18.632;2023-08-31T06:34:17;99814.75;;;15.91;100.00
36380;BME280;22411;53.016;18.632;2023-08-31T06:36:43;99812.31;;;15.98;100.00
36380;BME280;22411;53.016;18.632;2023-08-31T06:39:09;99808.59;;;16.00;100.00
36380;BME280;22411;53.016;18.632;2023-08-31T06:41:35;99810.06;;;16.03;100.00
36380;BME280;22411;53.016;18.632;2023-08-31T06:44:04;99808.94;;;16.05;100.00
36380;BME280;22411;53.016;18.632;2023-08-31T06:46:31;99819.78;;;16.18;100.00
36380;BME280;22411;53.016;18.632;2023-08-31T06:49:04;99820.47;;;16.29;100.00
36380;BME280;22411;53.016;18.632;2023-08-31T06:51:32;99816.91;;;16.30;100.00
36380;BME280;22411;53.016;18.632;2023-08-31T06:53:57;99810.88;;;16.37;100.00
36380;BME280;22411;53.016;18.632;2023-08-31T06:56:35;99815.97;;;16.47;100.00
36380;BME280;22411;53.016;18.632;2023-08-31T06:59:01;99826.13;;;16.58;100.00
36380;BME280;22411;53.016;18.632;2023-08-31T07:01:28;99822.69;;;16.66;100.00
36380;BME280;22411;53.016;18.632;2023-08-31T07:03:55;99826.19;;;16.75;100.00
36380;BME280;22411;53.016;18.632;2023-08-31T07:06:21;99830.28;;;16.85;100.00
36380;BME280;22411;53.016;18.632;2023-08-31T07:08:46;99826.88;;;16.93;100.00
36380;BME280;22411;53.016;18.632;2023-08-31T07:11:14;99827.84;;;17.00;100.00
36380;BME280;22411;53.016;18.632;2023-08-31T07:13:40;99823.91;;;16.96;100.00
36380;BME280;22411;53.016;18.632;2023-08-31T07:16:06;99830.47;;;16.92;100.00
36380;BME280;22411;53.016;18.632;2023-08-31T07:18:32;99819.84;;;16.93;100.00
36380;BME280;22411;53.016;18.632;2023-08-31T07:20:58;99822.13;;;16.96;100.00
36380;BME280;22411;53.016;18.632;2023-08-31T07:23:23;99825.56;;;16.97;100.00
36380;BME280;22411;53.016;18.632;2023-08-31T07:25:49;99824.59;;;17.06;100.00
36380;BME280;22411;53.016;18.632;2023-08-31T07:28:15;99823.94;;;17.12;100.00
36380;BME280;22411;53.016;18.632;2023-08-31T07:30:41;99826.06;;;17.17;100.00
36380;BME280;22411;53.016;18.632;2023-08-31T07:33:07;99832.13;;;17.25;100.00
36380;BME280;22411;53.016;18.632;2023-08-31T07:35:33;99832.78;;;17.36;100.00
36380;BME280;22411;53.016;18.632;2023-08-31T07:37:58;99841.63;;;17.51;100.00
36380;BME280;22411;53.016;18.632;2023-08-31T07:40:24;99842.91;;;17.63;100.00
36380;BME280;22411;53.016;18.632;2023-08-31T07:42:50;99846.69;;;17.77;100.00
36380;BME280;22411;53.016;18.632;2023-08-31T07:45:17;99844.97;;;17.92;100.00
36380;BME280;22411;53.016;18.632;2023-08-31T07:47:43;99849.66;;;18.13;100.00
36380;BME280;22411;53.016;18.632;2023-08-31T07:50:09;99846.00;;;18.31;100.00
36380;BME280;22411;53.016;18.632;2023-08-31T07:52:34;99850.88;;;18.42;100.00
36380;BME280;22411;53.016;18.632;2023-08-31T07:55:00;99849.97;;;18.58;100.00
36380;BME280;22411;53.016;18.632;2023-08-31T07:57:26;99852.25;;;18.61;100.00
36380;BME280;22411;53.016;18.632;2023-08-31T07:59:52;99854.34;;;18.65;100.00
36380;BME280;22411;53.016;18.632;2023-08-31T08:02:17;99858.13;;;18.71;100.00
36380;BME280;22411;53.016;18.632;2023-08-31T08:04:45;99853.06;;;18.69;100.00
36380;BME280;22411;53.016;18.632;2023-08-31T08:07:11;99856.28;;;18.79;100.00
36380;BME280;22411;53.016;18.632;2023-08-31T08:09:37;99855.06;;;18.90;100.00
36380;BME280;22411;53.016;18.632;2023-08-31T08:12:02;99866.44;;;19.05;100.00
36380;BME280;22411;53.016;18.632;2023-08-31T08:14:28;99868.91;;;19.07;100.00
36380;BME280;22411;53.016;18.632;2023-08-31T08:16:54;99873.81;;;19.10;100.00
36380;BME280;22411;53.016;18.632;2023-08-31T08:19:23;99870.19;;;19.11;100.00
36380;BME280;22411;53.016;18.632;2023-08-31T08:21:50;99865.94;;;19.10;100.00
36380;BME280;22411;53.016;18.632;2023-08-31T08:24:16;99867.63;;;19.26;100.00
36380;BME280;22411;53.016;18.632;2023-08-31T08:26:41;99870.09;;;19.42;100.00
36380;BME280;22411;53.016;18.632;2023-08-31T08:29:07;99869.91;;;19.67;100.00
36380;BME280;22411;53.016;18.632;2023-08-31T08:31:33;99875.38;;;19.95;100.00
36380;BME280;22411;53.016;18.632;2023-08-31T08:33:59;99874.19;;;20.27;100.00
36380;BME280;22411;53.016;18.632;2023-08-31T08:36:25;99877.19;;;20.38;100.00
36380;BME280;22411;53.016;18.632;2023-08-31T08:38:51;99880.53;;;20.32;100.00
36380;BME280;22411;53.016;18.632;2023-08-31T08:41:23;99874.13;;;20.20;100.00
36380;BME280;22411;53.016;18.632;2023-08-31T08:43:50;99873.31;;;20.20;100.00
36380;BME280;22411;53.016;18.632;2023-08-31T08:46:16;99885.34;;;20.14;100.00
36380;BME280;22411;53.016;18.632;2023-08-31T08:48:44;99885.34;;;20.14;100.00
36380;BME280;22411;53.016;18.632;2023-08-31T08:51:10;99888.09;;;20.21;100.00
36380;BME280;22411;53.016;18.632;2023-08-31T08:53:37;99893.09;;;20.16;100.00
36380;BME280;22411;53.016;18.632;2023-08-31T08:56:04;99895.44;;;20.25;100.00
36380;BME280;22411;53.016;18.632;2023-08-31T08:58:30;99892.34;;;20.22;100.00
36380;BME280;22411;53.016;18.632;2023-08-31T09:00:55;99888.25;;;20.34;100.00
36380;BME280;22411;53.016;18.632;2023-08-31T09:03:24;99883.53;;;20.29;100.00
36380;BME280;22411;53.016;18.632;2023-08-31T09:05:50;99886.53;;;20.26;100.00
36380;BME280;22411;53.016;18.632;2023-08-31T09:08:25;99885.97;;;20.46;100.00
36380;BME280;22411;53.016;18.632;2023-08-31T09:10:51;99879.59;;;20.70;100.00
36380;BME280;22411;53.016;18.632;2023-08-31T09:13:17;99882.06;;;20.93;100.00
36380;BME280;22411;53.016;18.632;2023-08-31T09:15:48;99874.38;;;21.12;100.00
36380;BME280;22411;53.016;18.632;2023-08-31T09:18:25;99886.97;;;21.60;100.00
36380;BME280;22411;53.016;18.632;2023-08-31T09:20:53;99879.25;;;21.86;100.00
36380;BME280;22411;53.016;18.632;2023-08-31T09:23:20;99883.38;;;21.96;100.00
36380;BME280;22411;53.016;18.632;2023-08-31T09:25:47;99885.44;;;21.72;100.00
36380;BME280;22411;53.016;18.632;2023-08-31T09:28:15;99881.41;;;21.48;100.00
36380;BME280;22411;53.016;18.632;2023-08-31T09:30:42;99892.44;;;21.30;100.00
36380;BME280;22411;53.016;18.632;2023-08-31T09:33:09;99879.38;;;21.07;100.00
36380;BME280;22411;53.016;18.632;2023-08-31T09:35:39;99882.16;;;20.99;100.00
36380;BME280;22411;53.016;18.632;2023-08-31T09:38:09;99884.03;;;20.84;100.00
36380;BME280;22411;53.016;18.632;2023-08-31T09:40:36;99896.38;;;20.83;100.00
36380;BME280;22411;53.016;18.632;2023-08-31T09:43:02;99890.56;;;20.88;100.00
36380;BME280;22411;53.016;18.632;2023-08-31T09:45:30;99890.66;;;20.80;100.00
36380;BME280;22411;53.016;18.632;2023-08-31T09:48:00;99895.22;;;20.71;100.00
36380;BME280;22411;53.016;18.632;2023-08-31T09:50:31;99885.75;;;20.77;100.00
36380;BME280;22411;53.016;18.632;2023-08-31T09:53:04;99886.03;;;21.03;100.00
36380;BME280;22411;53.016;18.632;2023-08-31T09:55:31;99886.25;;;21.45;100.00
36380;BME280;22411;53.016;18.632;2023-08-31T09:58:00;99885.16;;;21.88;100.00
36380;BME280;22411;53.016;18.632;2023-08-31T10:00:27;99890.63;;;22.15;100.00
36380;BME280;22411;53.016;18.632;2023-08-31T10:03:00;99888.41;;;21.90;100.00
36380;BME280;22411;53.016;18.632;2023-08-31T10:05:26;99879.75;;;21.69;100.00
36380;BME280;22411;53.016;18.632;2023-08-31T10:07:53;99876.34;;;21.47;100.00
36380;BME280;22411;53.016;18.632;2023-08-31T10:10:19;99872.81;;;21.18;100.00
36380;BME280;22411;53.016;18.632;2023-08-31T10:12:49;99887.94;;;20.88;100.00
36380;BME280;22411;53.016;18.632;2023-08-31T10:15:16;99882.44;;;20.68;100.00
36380;BME280;22411;53.016;18.632;2023-08-31T10:17:42;99894.88;;;20.59;100.00
36380;BME280;22411;53.016;18.632;2023-08-31T10:20:09;99883.72;;;20.43;100.00
36380;BME280;22411;53.016;18.632;2023-08-31T10:22:36;99879.38;;;20.05;100.00
36380;BME280;22411;53.016;18.632;2023-08-31T10:25:04;99881.00;;;20.06;100.00
36380;BME280;22411;53.016;18.632;2023-08-31T10:27:44;99876.84;;;20.27;100.00
36380;BME280;22411;53.016;18.632;2023-08-31T10:33:19;99878.06;;;20.75;100.00
36380;BME280;22411;53.016;18.632;2023-08-31T10:35:54;99869.94;;;20.77;100.00
36380;BME280;22411;53.016;18.632;2023-08-31T10:38:26;99858.59;;;21.34;100.00
36380;BME280;22411;53.016;18.632;2023-08-31T10:46:24;99858.72;;;21.82;100.00
36380;BME280;22411;53.016;18.632;2023-08-31T10:49:00;99861.19;;;21.83;100.00
36380;BME280;22411;53.016;18.632;2023-08-31T10:51:31;99853.22;;;21.49;100.00
36380;BME280;22411;53.016;18.632;2023-08-31T10:54:13;99865.97;;;21.24;100.00
36380;BME280;22411;53.016;18.632;2023-08-31T10:59:51;99870.03;;;20.32;100.00
36380;BME280;22411;53.016;18.632;2023-08-31T11:05:06;99885.34;;;20.44;100.00
36380;BME280;22411;53.016;18.632;2023-08-31T11:07:32;99880.59;;;20.83;100.00
36380;BME280;22411;53.016;18.632;2023-08-31T11:12:37;99887.81;;;21.67;100.00
36380;BME280;22411;53.016;18.632;2023-08-31T11:15:04;99889.91;;;21.72;100.00
36380;BME280;22411;53.016;18.632;2023-08-31T11:17:30;99899.91;;;21.83;100.00
36380;BME280;22411;53.016;18.632;2023-08-31T11:19:58;99918.81;;;21.15;100.00
36380;BME280;22411;53.016;18.632;2023-08-31T11:22:24;99912.13;;;20.62;100.00
36380;BME280;22411;53.016;18.632;2023-08-31T11:24:50;99906.13;;;20.24;100.00
36380;BME280;22411;53.016;18.632;2023-08-31T11:27:19;99896.59;;;20.08;100.00
36380;BME280;22411;53.016;18.632;2023-08-31T11:29:46;99929.78;;;19.79;100.00
36380;BME280;22411;53.016;18.632;2023-08-31T11:32:12;99970.44;;;19.46;100.00
36380;BME280;22411;53.016;18.632;2023-08-31T11:34:44;99931.72;;;18.86;100.00
36380;BME280;22411;53.016;18.632;2023-08-31T11:37:12;99936.38;;;18.12;100.00
36380;BME280;22411;53.016;18.632;2023-08-31T11:39:51;99916.25;;;17.39;100.00
36380;BME280;22411;53.016;18.632;2023-08-31T11:42:19;99906.44;;;17.33;100.00
36380;BME280;22411;53.016;18.632;2023-08-31T11:44:48;99922.63;;;17.20;100.00
36380;BME280;22411;53.016;18.632;2023-08-31T11:47:16;99922.09;;;17.08;100.00
36380;BME280;22411;53.016;18.632;2023-08-31T11:49:42;99937.66;;;17.10;100.00
36380;BME280;22411;53.016;18.632;2023-08-31T11:52:10;99938.94;;;16.97;100.00
36380;BME280;22411;53.016;18.632;2023-08-31T11:54:38;99938.44;;;16.94;100.00
36380;BME280;22411;53.016;18.632;2023-08-31T11:57:06;99932.47;;;16.76;100.00
36380;BME280;22411;53.016;18.632;2023-08-31T11:59:35;99936.47;;;16.88;100.00
36380;BME280;22411;53.016;18.632;2023-08-31T12:02:01;99941.19;;;16.92;100.00
36380;BME280;22411;53.016;18.632;2023-08-31T12:04:28;99934.72;;;17.29;100.00
36380;BME280;22411;53.016;18.632;2023-08-31T12:07:01;99947.84;;;17.54;100.00
36380;BME280;22411;53.016;18.632;2023-08-31T12:09:30;99932.66;;;17.73;100.00
36380;BME280;22411;53.016;18.632;2023-08-31T12:11:56;99947.69;;;17.71;100.00
36380;BME280;22411;53.016;18.632;2023-08-31T12:14:23;99939.34;;;17.92;100.00
36380;BME280;22411;53.016;18.632;2023-08-31T12:16:50;99935.78;;;17.77;100.00
36380;BME280;22411;53.016;18.632;2023-08-31T12:19:16;99928.38;;;17.56;100.00
36380;BME280;22411;53.016;18.632;2023-08-31T12:21:43;99930.16;;;17.56;100.00
36380;BME280;22411;53.016;18.632;2023-08-31T12:24:10;99929.69;;;17.60;100.00
36380;BME280;22411;53.016;18.632;2023-08-31T12:26:36;99932.97;;;17.54;100.00
36380;BME280;22411;53.016;18.632;2023-08-31T12:29:03;99922.47;;;17.54;100.00
36380;BME280;22411;53.016;18.632;2023-08-31T12:31:32;99913.66;;;17.80;100.00
36380;BME280;22411;53.016;18.632;2023-08-31T12:33:59;99918.38;;;18.00;100.00
36380;BME280;22411;53.016;18.632;2023-08-31T12:36:26;99933.28;;;17.92;100.00
36380;BME280;22411;53.016;18.632;2023-08-31T12:38:51;99930.69;;;17.84;100.00
36380;BME280;22411;53.016;18.632;2023-08-31T12:41:17;99923.47;;;17.94;100.00
36380;BME280;22411;53.016;18.632;2023-08-31T12:43:43;99922.66;;;17.85;100.00
36380;BME280;22411;53.016;18.632;2023-08-31T12:46:09;99936.38;;;17.71;100.00
36380;BME280;22411;53.016;18.632;2023-08-31T12:48:35;99949.66;;;17.69;100.00
36380;BME280;22411;53.016;18.632;2023-08-31T12:51:01;99942.63;;;17.62;100.00
36380;BME280;22411;53.016;18.632;2023-08-31T12:53:27;99936.09;;;17.74;100.00
36380;BME280;22411;53.016;18.632;2023-08-31T12:55:53;99949.69;;;17.86;100.00
36380;BME280;22411;53.016;18.632;2023-08-31T12:58:19;99956.56;;;17.95;100.00